sensor_id;sensor_type;location;lat;lon;timestamp;temperature;humidity
66337;SHT30;53139;45.576;5.304;2022-10-23T00:02:30;14.82;93.94
66337;SHT30;53139;45.576;5.304;2022-10-23T00:05:30;14.70;94.52
66337;SHT30;53139;45.576;5.304;2022-10-23T00:08:31;14.92;94.20
66337;SHT30;53139;45.576;5.304;2022-10-23T00:11:33;15.16;93.13
66337;SHT30;53139;45.576;5.304;2022-10-23T00:14:34;15.01;93.30
66337;SHT30;53139;45.576;5.304;2022-10-23T00:17:34;15.08;93.02
66337;SHT30;53139;45.576;5.304;2022-10-23T00:20:35;15.09;92.90
66337;SHT30;53139;45.576;5.304;2022-10-23T00:23:35;15.13;93.01
66337;SHT30;53139;45.576;5.304;2022-10-23T00:26:36;15.25;92.82
66337;SHT30;53139;45.576;5.304;2022-10-23T00:29:38;15.27;92.66
66337;SHT30;53139;45.576;5.304;2022-10-23T00:32:38;15.22;92.75
66337;SHT30;53139;45.576;5.304;2022-10-23T00:35:40;15.49;92.15
66337;SHT30;53139;45.576;5.304;2022-10-23T00:38:41;16.47;89.17
66337;SHT30;53139;45.576;5.304;2022-10-23T00:41:41;15.61;91.11
66337;SHT30;53139;45.576;5.304;2022-10-23T00:47:42;15.30;92.05
66337;SHT30;53139;45.576;5.304;2022-10-23T00:50:43;15.19;92.32
66337;SHT30;53139;45.576;5.304;2022-10-23T00:53:44;15.29;92.32
66337;SHT30;53139;45.576;5.304;2022-10-23T00:56:48;15.30;92.05
66337;SHT30;53139;45.576;5.304;2022-10-23T00:59:48;15.10;92.38
66337;SHT30;53139;45.576;5.304;2022-10-23T01:02:49;15.06;92.95
66337;SHT30;53139;45.576;5.304;2022-10-23T01:06:12;15.13;91.87
66337;SHT30;53139;45.576;5.304;2022-10-23T01:09:19;15.05;91.95
66337;SHT30;53139;45.576;5.304;2022-10-23T01:15:51;14.95;92.52
66337;SHT30;53139;45.576;5.304;2022-10-23T01:19:06;14.95;92.97
66337;SHT30;53139;45.576;5.304;2022-10-23T01:22:35;15.25;92.00
66337;SHT30;53139;45.576;5.304;2022-10-23T01:32:12;15.36;92.16
66337;SHT30;53139;45.576;5.304;2022-10-23T01:35:26;15.42;91.64
66337;SHT30;53139;45.576;5.304;2022-10-23T01:38:37;15.63;91.11
66337;SHT30;53139;45.576;5.304;2022-10-23T01:41:46;15.53;91.08
66337;SHT30;53139;45.576;5.304;2022-10-23T01:44:58;15.35;91.65
66337;SHT30;53139;45.576;5.304;2022-10-23T01:48:01;15.73;90.44
66337;SHT30;53139;45.576;5.304;2022-10-23T01:51:07;15.70;90.31
66337;SHT30;53139;45.576;5.304;2022-10-23T01:54:12;15.73;89.92
66337;SHT30;53139;45.576;5.304;2022-10-23T01:57:16;15.61;90.00
66337;SHT30;53139;45.576;5.304;2022-10-23T02:00:18;15.60;90.28
66337;SHT30;53139;45.576;5.304;2022-10-23T02:03:19;15.57;90.17
66337;SHT30;53139;45.576;5.304;2022-10-23T02:06:20;15.35;90.74
66337;SHT30;53139;45.576;5.304;2022-10-23T02:09:20;15.44;90.64
66337;SHT30;53139;45.576;5.304;2022-10-23T02:12:44;15.43;90.38
66337;SHT30;53139;45.576;5.304;2022-10-23T02:15:50;15.20;91.45
66337;SHT30;53139;45.576;5.304;2022-10-23T02:22:26;15.30;90.93
66337;SHT30;53139;45.576;5.304;2022-10-23T02:25:36;15.15;91.38
66337;SHT30;53139;45.576;5.304;2022-10-23T02:32:18;15.05;91.44
66337;SHT30;53139;45.576;5.304;2022-10-23T02:35:21;14.77;92.64
66337;SHT30;53139;45.576;5.304;2022-10-23T02:38:51;14.63;93.20
66337;SHT30;53139;45.576;5.304;2022-10-23T02:41:56;14.60;93.31
66337;SHT30;53139;45.576;5.304;2022-10-23T02:45:07;14.68;92.82
66337;SHT30;53139;45.576;5.304;2022-10-23T02:48:17;14.44;94.17
66337;SHT30;53139;45.576;5.304;2022-10-23T02:51:30;14.56;93.67
66337;SHT30;53139;45.576;5.304;2022-10-23T02:58:33;14.88;92.55
66337;SHT30;53139;45.576;5.304;2022-10-23T03:01:39;14.89;92.27
66337;SHT30;53139;45.576;5.304;2022-10-23T03:04:43;15.01;91.69
66337;SHT30;53139;45.576;5.304;2022-10-23T03:07:44;14.85;92.70
66337;SHT30;53139;45.576;5.304;2022-10-23T03:10:45;16.12;87.65
66337;SHT30;53139;45.576;5.304;2022-10-23T03:13:46;16.19;87.71
66337;SHT30;53139;45.576;5.304;2022-10-23T03:16:47;16.56;86.57
66337;SHT30;53139;45.576;5.304;2022-10-23T03:19:47;16.78;85.49
66337;SHT30;53139;45.576;5.304;2022-10-23T03:22:47;17.04;84.25
66337;SHT30;53139;45.576;5.304;2022-10-23T03:25:48;16.91;85.04
66337;SHT30;53139;45.576;5.304;2022-10-23T03:28:48;16.75;85.67
66337;SHT30;53139;45.576;5.304;2022-10-23T03:31:48;16.87;85.12
66337;SHT30;53139;45.576;5.304;2022-10-23T03:34:49;16.65;85.86
66337;SHT30;53139;45.576;5.304;2022-10-23T03:37:49;16.78;85.33
66337;SHT30;53139;45.576;5.304;2022-10-23T03:40:49;16.78;85.28
66337;SHT30;53139;45.576;5.304;2022-10-23T03:43:50;16.91;84.68
66337;SHT30;53139;45.576;5.304;2022-10-23T03:46:50;16.78;85.13
66337;SHT30;53139;45.576;5.304;2022-10-23T03:49:50;16.75;85.13
66337;SHT30;53139;45.576;5.304;2022-10-23T03:52:51;16.84;84.83
66337;SHT30;53139;45.576;5.304;2022-10-23T03:55:51;16.88;84.48
66337;SHT30;53139;45.576;5.304;2022-10-23T03:58:51;17.02;83.79
66337;SHT30;53139;45.576;5.304;2022-10-23T04:01:52;16.92;84.34
66337;SHT30;53139;45.576;5.304;2022-10-23T04:04:52;17.08;83.45
66337;SHT30;53139;45.576;5.304;2022-10-23T04:07:53;16.95;84.27
66337;SHT30;53139;45.576;5.304;2022-10-23T04:10:54;17.19;83.27
66337;SHT30;53139;45.576;5.304;2022-10-23T04:13:54;17.11;83.94
66337;SHT30;53139;45.576;5.304;2022-10-23T04:16:55;17.08;84.04
66337;SHT30;53139;45.576;5.304;2022-10-23T04:19:55;16.85;85.02
66337;SHT30;53139;45.576;5.304;2022-10-23T04:22:56;17.20;83.61
66337;SHT30;53139;45.576;5.304;2022-10-23T04:25:56;17.04;84.29
66337;SHT30;53139;45.576;5.304;2022-10-23T04:28:57;16.98;84.44
66337;SHT30;53139;45.576;5.304;2022-10-23T04:31:57;16.61;85.38
66337;SHT30;53139;45.576;5.304;2022-10-23T04:34:58;16.61;85.73
66337;SHT30;53139;45.576;5.304;2022-10-23T04:37:58;16.61;85.84
66337;SHT30;53139;45.576;5.304;2022-10-23T04:40:59;16.56;86.17
66337;SHT30;53139;45.576;5.304;2022-10-23T04:43:59;16.61;85.66
66337;SHT30;53139;45.576;5.304;2022-10-23T04:46:59;16.23;87.48
66337;SHT30;53139;45.576;5.304;2022-10-23T04:50:00;16.09;86.92
66337;SHT30;53139;45.576;5.304;2022-10-23T04:53:00;15.94;87.30
66337;SHT30;53139;45.576;5.304;2022-10-23T04:56:01;15.74;87.49
66337;SHT30;53139;45.576;5.304;2022-10-23T04:59:01;15.80;87.77
66337;SHT30;53139;45.576;5.304;2022-10-23T05:02:02;15.68;88.34
66337;SHT30;53139;45.576;5.304;2022-10-23T05:05:03;15.73;87.62
66337;SHT30;53139;45.576;5.304;2022-10-23T05:08:04;15.65;87.62
66337;SHT30;53139;45.576;5.304;2022-10-23T05:11:04;15.40;90.05
66337;SHT30;53139;45.576;5.304;2022-10-23T05:14:04;15.54;88.20
66337;SHT30;53139;45.576;5.304;2022-10-23T05:17:15;15.42;88.95
66337;SHT30;53139;45.576;5.304;2022-10-23T05:20:22;15.53;88.21
66337;SHT30;53139;45.576;5.304;2022-10-23T05:23:24;15.40;88.87
66337;SHT30;53139;45.576;5.304;2022-10-23T05:26:25;15.44;88.83
66337;SHT30;53139;45.576;5.304;2022-10-23T05:29:25;15.57;88.31
66337;SHT30;53139;45.576;5.304;2022-10-23T05:32:29;15.47;88.82
66337;SHT30;53139;45.576;5.304;2022-10-23T05:35:30;15.70;88.25
66337;SHT30;53139;45.576;5.304;2022-10-23T05:38:32;15.97;86.77
66337;SHT30;53139;45.576;5.304;2022-10-23T05:41:33;16.70;84.30
66337;SHT30;53139;45.576;5.304;2022-10-23T05:44:33;16.80;84.06
66337;SHT30;53139;45.576;5.304;2022-10-23T05:47:34;17.02;83.38
66337;SHT30;53139;45.576;5.304;2022-10-23T05:50:35;17.43;80.93
66337;SHT30;53139;45.576;5.304;2022-10-23T05:53:36;16.95;83.92
66337;SHT30;53139;45.576;5.304;2022-10-23T05:56:38;17.33;81.82
66337;SHT30;53139;45.576;5.304;2022-10-23T05:59:40;17.07;82.84
66337;SHT30;53139;45.576;5.304;2022-10-23T06:02:40;16.89;83.43
66337;SHT30;53139;45.576;5.304;2022-10-23T06:05:48;17.01;82.78
66337;SHT30;53139;45.576;5.304;2022-10-23T06:08:48;16.84;84.34
66337;SHT30;53139;45.576;5.304;2022-10-23T06:11:49;16.65;86.35
66337;SHT30;53139;45.576;5.304;2022-10-23T06:14:49;16.59;86.44
66337;SHT30;53139;45.576;5.304;2022-10-23T06:17:49;16.85;84.16
66337;SHT30;53139;45.576;5.304;2022-10-23T06:20:50;16.75;84.47
66337;SHT30;53139;45.576;5.304;2022-10-23T06:23:50;16.80;83.94
66337;SHT30;53139;45.576;5.304;2022-10-23T06:26:51;16.67;84.68
66337;SHT30;53139;45.576;5.304;2022-10-23T06:29:51;16.75;84.08
66337;SHT30;53139;45.576;5.304;2022-10-23T06:32:53;16.75;84.19
66337;SHT30;53139;45.576;5.304;2022-10-23T06:35:55;16.64;84.89
66337;SHT30;53139;45.576;5.304;2022-10-23T06:38:55;16.77;84.46
66337;SHT30;53139;45.576;5.304;2022-10-23T06:41:55;16.63;84.76
66337;SHT30;53139;45.576;5.304;2022-10-23T06:44:56;16.63;84.80
66337;SHT30;53139;45.576;5.304;2022-10-23T06:47:56;16.61;84.59
66337;SHT30;53139;45.576;5.304;2022-10-23T06:50:58;16.57;84.91
66337;SHT30;53139;45.576;5.304;2022-10-23T06:53:58;16.64;84.49
66337;SHT30;53139;45.576;5.304;2022-10-23T06:56:58;16.59;85.11
66337;SHT30;53139;45.576;5.304;2022-10-23T06:59:59;16.57;85.09
66337;SHT30;53139;45.576;5.304;2022-10-23T07:02:59;16.67;84.26
66337;SHT30;53139;45.576;5.304;2022-10-23T07:06:05;16.78;84.33
66337;SHT30;53139;45.576;5.304;2022-10-23T07:09:05;16.92;84.14
66337;SHT30;53139;45.576;5.304;2022-10-23T07:12:07;17.01;83.34
66337;SHT30;53139;45.576;5.304;2022-10-23T07:15:08;16.99;83.67
66337;SHT30;53139;45.576;5.304;2022-10-23T07:18:08;17.26;82.35
66337;SHT30;53139;45.576;5.304;2022-10-23T07:21:13;17.54;81.42
66337;SHT30;53139;45.576;5.304;2022-10-23T07:24:14;17.57;81.50
66337;SHT30;53139;45.576;5.304;2022-10-23T07:27:14;17.57;81.71
66337;SHT30;53139;45.576;5.304;2022-10-23T07:30:15;17.80;81.05
66337;SHT30;53139;45.576;5.304;2022-10-23T07:33:15;17.69;81.48
66337;SHT30;53139;45.576;5.304;2022-10-23T07:36:17;17.84;80.72
66337;SHT30;53139;45.576;5.304;2022-10-23T07:39:17;17.75;81.32
66337;SHT30;53139;45.576;5.304;2022-10-23T07:42:17;17.74;82.09
66337;SHT30;53139;45.576;5.304;2022-10-23T07:45:18;17.98;79.88
66337;SHT30;53139;45.576;5.304;2022-10-23T07:48:19;18.00;80.40
66337;SHT30;53139;45.576;5.304;2022-10-23T07:51:20;17.78;82.94
66337;SHT30;53139;45.576;5.304;2022-10-23T07:54:20;18.06;80.12
66337;SHT30;53139;45.576;5.304;2022-10-23T07:57:21;18.04;80.06
66337;SHT30;53139;45.576;5.304;2022-10-23T08:00:21;17.97;82.07
66337;SHT30;53139;45.576;5.304;2022-10-23T08:03:21;18.04;81.86
66337;SHT30;53139;45.576;5.304;2022-10-23T08:06:22;18.13;80.74
66337;SHT30;53139;45.576;5.304;2022-10-23T08:09:23;18.43;79.59
66337;SHT30;53139;45.576;5.304;2022-10-23T08:12:23;18.33;80.97
66337;SHT30;53139;45.576;5.304;2022-10-23T08:15:24;18.84;77.48
66337;SHT30;53139;45.576;5.304;2022-10-23T08:18:24;19.01;77.10
66337;SHT30;53139;45.576;5.304;2022-10-23T08:21:25;18.64;79.81
66337;SHT30;53139;45.576;5.304;2022-10-23T08:24:25;18.68;81.15
66337;SHT30;53139;45.576;5.304;2022-10-23T08:27:26;18.59;81.67
66337;SHT30;53139;45.576;5.304;2022-10-23T08:30:27;19.11;77.39
66337;SHT30;53139;45.576;5.304;2022-10-23T08:33:27;19.47;75.72
66337;SHT30;53139;45.576;5.304;2022-10-23T08:36:28;19.20;77.42
66337;SHT30;53139;45.576;5.304;2022-10-23T08:39:29;19.35;77.36
66337;SHT30;53139;45.576;5.304;2022-10-23T08:42:29;19.45;76.18
66337;SHT30;53139;45.576;5.304;2022-10-23T08:45:43;19.38;76.85
66337;SHT30;53139;45.576;5.304;2022-10-23T08:48:52;19.70;74.60
66337;SHT30;53139;45.576;5.304;2022-10-23T08:51:57;19.50;76.36
66337;SHT30;53139;45.576;5.304;2022-10-23T08:55:22;19.57;75.39
66337;SHT30;53139;45.576;5.304;2022-10-23T08:58:35;19.64;74.79
66337;SHT30;53139;45.576;5.304;2022-10-23T09:01:41;19.80;73.46
66337;SHT30;53139;45.576;5.304;2022-10-23T09:04:44;19.71;73.90
66337;SHT30;53139;45.576;5.304;2022-10-23T09:17:30;19.97;72.86
66337;SHT30;53139;45.576;5.304;2022-10-23T09:20:32;20.04;72.44
66337;SHT30;53139;45.576;5.304;2022-10-23T09:23:33;19.92;73.65
66337;SHT30;53139;45.576;5.304;2022-10-23T09:26:33;20.28;71.23
66337;SHT30;53139;45.576;5.304;2022-10-23T09:29:34;20.38;70.57
66337;SHT30;53139;45.576;5.304;2022-10-23T09:32:37;20.38;70.97
66337;SHT30;53139;45.576;5.304;2022-10-23T09:35:37;20.57;69.79
66337;SHT30;53139;45.576;5.304;2022-10-23T09:38:50;20.46;70.95
66337;SHT30;53139;45.576;5.304;2022-10-23T09:41:51;20.62;70.06
66337;SHT30;53139;45.576;5.304;2022-10-23T09:44:53;20.59;70.43
66337;SHT30;53139;45.576;5.304;2022-10-23T09:48:10;20.56;70.39
66337;SHT30;53139;45.576;5.304;2022-10-23T09:51:18;20.64;69.69
66337;SHT30;53139;45.576;5.304;2022-10-23T09:54:21;20.55;70.80
66337;SHT30;53139;45.576;5.304;2022-10-23T10:00:26;20.90;69.18
66337;SHT30;53139;45.576;5.304;2022-10-23T10:03:27;21.10;69.05
66337;SHT30;53139;45.576;5.304;2022-10-23T10:06:30;21.21;68.87
66337;SHT30;53139;45.576;5.304;2022-10-23T10:09:30;21.65;67.28
66337;SHT30;53139;45.576;5.304;2022-10-23T10:15:49;22.76;63.42
66337;SHT30;53139;45.576;5.304;2022-10-23T10:19:16;22.82;62.38
66337;SHT30;53139;45.576;5.304;2022-10-23T10:22:51;22.87;62.78
66337;SHT30;53139;45.576;5.304;2022-10-23T10:28:55;22.83;62.57
66337;SHT30;53139;45.576;5.304;2022-10-23T10:35:33;22.74;61.56
66337;SHT30;53139;45.576;5.304;2022-10-23T10:42:38;23.20;60.87
66337;SHT30;53139;45.576;5.304;2022-10-23T10:45:55;22.94;61.19
66337;SHT30;53139;45.576;5.304;2022-10-23T10:49:09;22.82;61.28
66337;SHT30;53139;45.576;5.304;2022-10-23T10:52:30;22.74;61.24
66337;SHT30;53139;45.576;5.304;2022-10-23T10:55:40;23.08;61.84
66337;SHT30;53139;45.576;5.304;2022-10-23T10:58:47;23.14;62.08
66337;SHT30;53139;45.576;5.304;2022-10-23T11:08:37;23.28;60.54
66337;SHT30;53139;45.576;5.304;2022-10-23T11:11:39;23.10;61.50
66337;SHT30;53139;45.576;5.304;2022-10-23T11:14:41;23.12;61.79
66337;SHT30;53139;45.576;5.304;2022-10-23T11:17:49;23.42;61.01
66337;SHT30;53139;45.576;5.304;2022-10-23T11:21:20;23.56;60.42
66337;SHT30;53139;45.576;5.304;2022-10-23T11:24:42;23.48;60.20
66337;SHT30;53139;45.576;5.304;2022-10-23T11:35:13;23.59;59.05
66337;SHT30;53139;45.576;5.304;2022-10-23T11:37:57;23.31;60.51
66337;SHT30;53139;45.576;5.304;2022-10-23T11:41:15;23.18;59.77
66337;SHT30;53139;45.576;5.304;2022-10-23T11:44:43;23.17;59.18
66337;SHT30;53139;45.576;5.304;2022-10-23T11:48:05;23.21;60.13
66337;SHT30;53139;45.576;5.304;2022-10-23T11:54:28;23.77;58.66
66337;SHT30;53139;45.576;5.304;2022-10-23T11:57:28;24.37;59.19
66337;SHT30;53139;45.576;5.304;2022-10-23T12:00:31;24.31;58.56
66337;SHT30;53139;45.576;5.304;2022-10-23T12:03:40;23.96;57.96
66337;SHT30;53139;45.576;5.304;2022-10-23T12:06:52;24.31;58.54
66337;SHT30;53139;45.576;5.304;2022-10-23T12:09:57;24.59;57.90
66337;SHT30;53139;45.576;5.304;2022-10-23T12:13:44;24.00;58.63
66337;SHT30;53139;45.576;5.304;2022-10-23T12:16:20;24.22;59.28
66337;SHT30;53139;45.576;5.304;2022-10-23T12:19:23;24.34;58.75
66337;SHT30;53139;45.576;5.304;2022-10-23T12:22:30;24.64;58.33
66337;SHT30;53139;45.576;5.304;2022-10-23T12:38:52;25.10;57.67
66337;SHT30;53139;45.576;5.304;2022-10-23T12:41:58;24.66;57.67
66337;SHT30;53139;45.576;5.304;2022-10-23T12:48:21;24.16;58.09
66337;SHT30;53139;45.576;5.304;2022-10-23T12:51:23;24.13;58.73
66337;SHT30;53139;45.576;5.304;2022-10-23T12:54:24;24.06;59.14
66337;SHT30;53139;45.576;5.304;2022-10-23T12:57:27;24.11;58.99
66337;SHT30;53139;45.576;5.304;2022-10-23T13:00:29;24.44;58.65
66337;SHT30;53139;45.576;5.304;2022-10-23T13:03:31;24.10;58.02
66337;SHT30;53139;45.576;5.304;2022-10-23T13:06:31;24.20;58.89
66337;SHT30;53139;45.576;5.304;2022-10-23T13:09:38;24.20;58.47
66337;SHT30;53139;45.576;5.304;2022-10-23T13:12:42;24.18;58.81
66337;SHT30;53139;45.576;5.304;2022-10-23T13:15:46;23.84;59.29
66337;SHT30;53139;45.576;5.304;2022-10-23T13:18:47;23.55;59.68
66337;SHT30;53139;45.576;5.304;2022-10-23T13:21:48;23.66;60.30
66337;SHT30;53139;45.576;5.304;2022-10-23T13:24:48;24.01;59.91
66337;SHT30;53139;45.576;5.304;2022-10-23T13:27:49;23.73;60.37
66337;SHT30;53139;45.576;5.304;2022-10-23T13:31:02;23.66;60.82
66337;SHT30;53139;45.576;5.304;2022-10-23T13:34:05;23.41;61.14
66337;SHT30;53139;45.576;5.304;2022-10-23T13:37:27;23.34;61.02
66337;SHT30;53139;45.576;5.304;2022-10-23T13:40:27;23.38;61.59
66337;SHT30;53139;45.576;5.304;2022-10-23T13:43:29;23.41;61.30
66337;SHT30;53139;45.576;5.304;2022-10-23T13:46:30;23.59;61.67
66337;SHT30;53139;45.576;5.304;2022-10-23T13:49:31;23.52;61.97
66337;SHT30;53139;45.576;5.304;2022-10-23T13:52:31;23.63;61.88
66337;SHT30;53139;45.576;5.304;2022-10-23T13:55:31;23.59;61.49
66337;SHT30;53139;45.576;5.304;2022-10-23T13:58:33;23.79;62.24
66337;SHT30;53139;45.576;5.304;2022-10-23T14:01:34;23.75;61.27
66337;SHT30;53139;45.576;5.304;2022-10-23T14:04:35;23.32;62.98
66337;SHT30;53139;45.576;5.304;2022-10-23T14:07:35;23.27;63.05
66337;SHT30;53139;45.576;5.304;2022-10-23T14:10:35;23.10;63.73
66337;SHT30;53139;45.576;5.304;2022-10-23T14:13:36;22.94;63.57
66337;SHT30;53139;45.576;5.304;2022-10-23T14:16:36;22.90;64.16
66337;SHT30;53139;45.576;5.304;2022-10-23T14:19:37;22.89;64.15
66337;SHT30;53139;45.576;5.304;2022-10-23T14:22:37;22.77;64.29
66337;SHT30;53139;45.576;5.304;2022-10-23T14:25:38;22.65;64.45
66337;SHT30;53139;45.576;5.304;2022-10-23T14:28:38;22.67;64.39
66337;SHT30;53139;45.576;5.304;2022-10-23T14:31:38;22.56;65.68
66337;SHT30;53139;45.576;5.304;2022-10-23T14:34:41;22.52;64.80
66337;SHT30;53139;45.576;5.304;2022-10-23T14:37:42;22.55;64.41
66337;SHT30;53139;45.576;5.304;2022-10-23T14:40:43;22.51;64.65
66337;SHT30;53139;45.576;5.304;2022-10-23T14:43:43;22.52;64.43
66337;SHT30;53139;45.576;5.304;2022-10-23T14:46:43;22.60;63.90
66337;SHT30;53139;45.576;5.304;2022-10-23T14:49:47;22.52;64.85
66337;SHT30;53139;45.576;5.304;2022-10-23T14:52:51;22.57;64.13
66337;SHT30;53139;45.576;5.304;2022-10-23T14:55:51;22.55;65.01
66337;SHT30;53139;45.576;5.304;2022-10-23T14:58:52;22.52;64.61
66337;SHT30;53139;45.576;5.304;2022-10-23T15:01:52;22.60;63.97
66337;SHT30;53139;45.576;5.304;2022-10-23T15:04:53;22.51;65.13
66337;SHT30;53139;45.576;5.304;2022-10-23T15:07:54;22.53;64.17
66337;SHT30;53139;45.576;5.304;2022-10-23T15:10:58;22.56;64.03
66337;SHT30;53139;45.576;5.304;2022-10-23T15:13:59;22.73;62.27
66337;SHT30;53139;45.576;5.304;2022-10-23T15:16:59;22.63;63.36
66337;SHT30;53139;45.576;5.304;2022-10-23T15:20:00;22.57;63.45
66337;SHT30;53139;45.576;5.304;2022-10-23T15:23:00;22.74;61.96
66337;SHT30;53139;45.576;5.304;2022-10-23T15:26:05;22.66;62.78
66337;SHT30;53139;45.576;5.304;2022-10-23T15:29:05;22.77;61.51
66337;SHT30;53139;45.576;5.304;2022-10-23T15:32:08;22.70;62.17
66337;SHT30;53139;45.576;5.304;2022-10-23T15:35:08;22.67;62.10
66337;SHT30;53139;45.576;5.304;2022-10-23T15:38:09;22.72;61.96
66337;SHT30;53139;45.576;5.304;2022-10-23T15:41:14;22.56;62.67
66337;SHT30;53139;45.576;5.304;2022-10-23T15:44:16;22.57;62.50
66337;SHT30;53139;45.576;5.304;2022-10-23T15:47:17;22.72;61.59
66337;SHT30;53139;45.576;5.304;2022-10-23T15:50:17;22.56;62.38
66337;SHT30;53139;45.576;5.304;2022-10-23T15:53:18;22.63;61.73
66337;SHT30;53139;45.576;5.304;2022-10-23T15:56:18;22.45;62.95
66337;SHT30;53139;45.576;5.304;2022-10-23T15:59:20;22.56;61.86
66337;SHT30;53139;45.576;5.304;2022-10-23T16:02:21;22.44;63.00
66337;SHT30;53139;45.576;5.304;2022-10-23T16:05:22;22.42;62.80
66337;SHT30;53139;45.576;5.304;2022-10-23T16:08:22;22.48;62.38
66337;SHT30;53139;45.576;5.304;2022-10-23T16:11:28;22.29;63.58
66337;SHT30;53139;45.576;5.304;2022-10-23T16:14:28;22.34;63.52
66337;SHT30;53139;45.576;5.304;2022-10-23T16:17:29;22.35;63.70
66337;SHT30;53139;45.576;5.304;2022-10-23T16:20:29;22.39;63.62
66337;SHT30;53139;45.576;5.304;2022-10-23T16:23:29;22.27;64.54
66337;SHT30;53139;45.576;5.304;2022-10-23T16:26:33;22.34;64.53
66337;SHT30;53139;45.576;5.304;2022-10-23T16:29:33;22.04;66.05
66337;SHT30;53139;45.576;5.304;2022-10-23T16:32:34;21.94;67.59
66337;SHT30;53139;45.576;5.304;2022-10-23T16:35:35;21.76;70.04
66337;SHT30;53139;45.576;5.304;2022-10-23T16:38:36;21.28;72.10
66337;SHT30;53139;45.576;5.304;2022-10-23T16:41:37;21.14;73.58
66337;SHT30;53139;45.576;5.304;2022-10-23T16:44:37;20.95;74.73
66337;SHT30;53139;45.576;5.304;2022-10-23T16:47:37;21.07;73.64
66337;SHT30;53139;45.576;5.304;2022-10-23T16:50:39;20.84;74.75
66337;SHT30;53139;45.576;5.304;2022-10-23T16:53:40;20.84;75.22
66337;SHT30;53139;45.576;5.304;2022-10-23T16:56:41;20.79;75.16
66337;SHT30;53139;45.576;5.304;2022-10-23T16:59:42;20.74;75.75
66337;SHT30;53139;45.576;5.304;2022-10-23T17:02:42;20.76;75.60
66337;SHT30;53139;45.576;5.304;2022-10-23T17:05:43;20.81;75.39
66337;SHT30;53139;45.576;5.304;2022-10-23T17:08:44;20.74;75.99
66337;SHT30;53139;45.576;5.304;2022-10-23T17:11:45;20.90;75.13
66337;SHT30;53139;45.576;5.304;2022-10-23T17:14:45;20.74;76.36
66337;SHT30;53139;45.576;5.304;2022-10-23T17:17:46;20.69;76.90
66337;SHT30;53139;45.576;5.304;2022-10-23T17:20:55;20.43;79.22
66337;SHT30;53139;45.576;5.304;2022-10-23T17:23:55;20.28;80.29
66337;SHT30;53139;45.576;5.304;2022-10-23T17:26:55;20.11;81.16
66337;SHT30;53139;45.576;5.304;2022-10-23T17:29:56;19.87;82.89
66337;SHT30;53139;45.576;5.304;2022-10-23T17:32:57;19.88;82.10
66337;SHT30;53139;45.576;5.304;2022-10-23T17:36:00;19.85;82.52
66337;SHT30;53139;45.576;5.304;2022-10-23T17:39:04;19.66;83.27
66337;SHT30;53139;45.576;5.304;2022-10-23T17:42:04;19.66;83.41
66337;SHT30;53139;45.576;5.304;2022-10-23T17:45:05;19.53;83.69
66337;SHT30;53139;45.576;5.304;2022-10-23T17:48:05;19.42;84.36
66337;SHT30;53139;45.576;5.304;2022-10-23T17:51:13;19.53;83.42
66337;SHT30;53139;45.576;5.304;2022-10-23T17:54:13;19.45;84.06
66337;SHT30;53139;45.576;5.304;2022-10-23T17:57:14;19.42;84.32
66337;SHT30;53139;45.576;5.304;2022-10-23T18:00:14;19.49;84.12
66337;SHT30;53139;45.576;5.304;2022-10-23T18:03:15;19.40;85.01
66337;SHT30;53139;45.576;5.304;2022-10-23T18:06:18;19.60;84.36
66337;SHT30;53139;45.576;5.304;2022-10-23T18:09:20;19.69;83.67
66337;SHT30;53139;45.576;5.304;2022-10-23T18:12:21;19.92;80.18
66337;SHT30;53139;45.576;5.304;2022-10-23T18:15:22;20.11;75.76
66337;SHT30;53139;45.576;5.304;2022-10-23T18:18:22;19.74;78.42
66337;SHT30;53139;45.576;5.304;2022-10-23T18:21:23;19.78;79.09
66337;SHT30;53139;45.576;5.304;2022-10-23T18:24:23;19.67;80.55
66337;SHT30;53139;45.576;5.304;2022-10-23T18:27:25;19.60;81.53
66337;SHT30;53139;45.576;5.304;2022-10-23T18:30:25;19.52;82.71
66337;SHT30;53139;45.576;5.304;2022-10-23T18:33:26;19.59;82.41
66337;SHT30;53139;45.576;5.304;2022-10-23T18:36:28;19.64;82.24
66337;SHT30;53139;45.576;5.304;2022-10-23T18:39:29;19.47;83.10
66337;SHT30;53139;45.576;5.304;2022-10-23T18:42:29;19.56;82.88
66337;SHT30;53139;45.576;5.304;2022-10-23T18:45:30;19.42;83.77
66337;SHT30;53139;45.576;5.304;2022-10-23T18:48:30;19.36;83.77
66337;SHT30;53139;45.576;5.304;2022-10-23T18:51:33;19.25;84.70
66337;SHT30;53139;45.576;5.304;2022-10-23T18:54:34;19.47;83.31
66337;SHT30;53139;45.576;5.304;2022-10-23T18:57:35;19.46;83.19
66337;SHT30;53139;45.576;5.304;2022-10-23T19:00:35;19.52;82.86
66337;SHT30;53139;45.576;5.304;2022-10-23T19:03:36;19.50;82.78
66337;SHT30;53139;45.576;5.304;2022-10-23T19:06:36;19.42;83.02
66337;SHT30;53139;45.576;5.304;2022-10-23T19:09:37;19.33;83.26
66337;SHT30;53139;45.576;5.304;2022-10-23T19:12:39;19.46;82.68
66337;SHT30;53139;45.576;5.304;2022-10-23T19:15:39;19.32;83.91
66337;SHT30;53139;45.576;5.304;2022-10-23T19:18:42;19.39;83.42
66337;SHT30;53139;45.576;5.304;2022-10-23T19:21:45;19.39;83.01
66337;SHT30;53139;45.576;5.304;2022-10-23T19:24:56;19.22;83.99
66337;SHT30;53139;45.576;5.304;2022-10-23T19:27:57;19.49;82.80
66337;SHT30;53139;45.576;5.304;2022-10-23T19:30:59;19.19;84.24
66337;SHT30;53139;45.576;5.304;2022-10-23T19:34:00;19.22;83.97
66337;SHT30;53139;45.576;5.304;2022-10-23T19:37:00;19.12;84.37
66337;SHT30;53139;45.576;5.304;2022-10-23T19:40:01;19.01;85.00
66337;SHT30;53139;45.576;5.304;2022-10-23T19:43:05;18.87;85.44
66337;SHT30;53139;45.576;5.304;2022-10-23T19:46:05;18.83;85.46
66337;SHT30;53139;45.576;5.304;2022-10-23T19:49:06;18.73;86.02
66337;SHT30;53139;45.576;5.304;2022-10-23T19:52:07;18.85;85.47
66337;SHT30;53139;45.576;5.304;2022-10-23T19:55:08;18.88;85.29
66337;SHT30;53139;45.576;5.304;2022-10-23T19:58:08;18.92;85.36
66337;SHT30;53139;45.576;5.304;2022-10-23T20:01:17;18.91;85.24
66337;SHT30;53139;45.576;5.304;2022-10-23T20:04:18;18.80;85.99
66337;SHT30;53139;45.576;5.304;2022-10-23T20:07:18;18.88;85.72
66337;SHT30;53139;45.576;5.304;2022-10-23T20:10:19;18.85;86.04
66337;SHT30;53139;45.576;5.304;2022-10-23T20:13:19;18.77;86.83
66337;SHT30;53139;45.576;5.304;2022-10-23T20:16:22;18.71;87.12
66337;SHT30;53139;45.576;5.304;2022-10-23T20:19:22;18.66;87.50
66337;SHT30;53139;45.576;5.304;2022-10-23T20:22:23;18.61;87.57
66337;SHT30;53139;45.576;5.304;2022-10-23T20:25:23;18.71;87.08
66337;SHT30;53139;45.576;5.304;2022-10-23T20:28:23;18.91;85.93
66337;SHT30;53139;45.576;5.304;2022-10-23T20:31:25;18.88;85.96
66337;SHT30;53139;45.576;5.304;2022-10-23T20:34:26;18.95;85.59
66337;SHT30;53139;45.576;5.304;2022-10-23T20:37:26;19.15;84.95
66337;SHT30;53139;45.576;5.304;2022-10-23T20:40:27;19.20;84.60